Terminal Aerodrome Forecast
Issued by NWS

Home | Current Version | Previous Version | Text Only | Print | Product List | Glossary On
Versions: 1 2 3 4 5 6 7 8 9 10 11 12 13 14 15 16 17 18 19 20 21 22 23 24 25 26 27 28 29 30 31 32 33 34 35 36 37 38 39 40
000
FTUS43 KAPX 211857 AAA
TAFMBL
TAF AMD
KMBL 211857Z 2119/2218 29008KT P6SM OVC010
     FM220000 26008KT P6SM VCSH OVC028
     FM220400 33012G21KT P6SM OVC045
     FM221600 35019G30KT P6SM SCT021=

USA.gov is the U.S. government's official web portal to all federal, state and local government web resources and services.